Registration

All data are given in time UTC except for the places where it is expressly stated to the contrary, The data provided on this website are informative!!!


Actual Weather
 
General weather forecast

High air temperature is forecasted with values from 25°C to 28°C.
dolkujlubellubulodzmalmazopopodkpodlpomslaswiwarwielzachHEAT (st.1)Increase of fire risk.Heatstress.Storms are forecasted to occur over a large area with rain or hail.
malslaTHUNDERSTORMS (st.1)Disturbances in the operation of electrical, electronical devices.Interference in radio and satellite communications.Difficulties in troops deployment (patched roads through broken branches and trees).Threat to life because of lightning.Possibility of damage to military equipment.Fire risk. Disturbances in the operation of radiolocation devices.
Weather - Poland
15°C Szczecin 16°C Suwałki 18°C Warszawa 20°C Poznan
19°C Opole 17°C Kraków 16°C Rzeszów
More cities in Poland

Weather - Europe
21°C Berlin 24°C Paryz 20°C Bruksela 16°C Oslo
22°C Praga 23°C Zagrzeb
More cities in Europe

METAR EPCE 242230Z VRB01KT CAVOK 14/12 Q1026 RMK 137 090 0/0=
METAR EPDA 242230Z 09007KT CAVOK 15/12 Q1025 RMK 151 083 0/0=
METAR EPDE 242230Z AUTO 12004KT 9999 15/12 Q1025 RMK 150 081 ///=
METAR EPIR 242200Z 07006KT CAVOK 17/08 Q1024 RMK 159 060 0/0=
METAR EPKS 242230Z 09006KT CAVOK 17/11 Q1024 RMK 169 068 0/0=
METAR EPLK 242230Z 09007KT CAVOK 18/11 Q1024 RMK 182 062 3/3=
METAR EPLY 242200Z 09004KT CAVOK 18/11 Q1025 RMK 178 066 2/2=
METAR EPMB 242200Z 13003KT CAVOK 15/12 Q1026 RMK 151 082 0/0=
METAR EPMI 242200Z 11004KT CAVOK 15/09 Q1025 RMK 154 067 0/0=
METAR EPMM 242200Z 10006KT CAVOK 15/11 Q1026 RMK 153 074 0/0=
METAR EPOK 242230Z 12006KT CAVOK 19/17 Q1026 RMK 189 091 0/0=
METAR EPPR 242230Z AUTO 27002KT 17/15 Q1026 RMK 169 089 ///=
METAR EPPW 242230Z 09006KT CAVOK 16/10 Q1024 RMK 161 067 0/0=
METAR EPSN 242200Z 09005KT CAVOK 16/10 Q1024 RMK 156 071 0/0=
METAR EPTM 242200Z AUTO 06004KT 16/10 Q1025 RMK 162 068 ///=


 

Copyright©2007 HS-PAF All rights reserved.